sensor_id;sensor_type;location;lat;lon;timestamp;temperature;humidity
55331;DHT22;58851;42.984;20.336;2023-06-04T00:00:49;384.30;128.00
55331;DHT22;58851;42.984;20.336;2023-06-04T00:03:15;384.10;128.00
55331;DHT22;58851;42.984;20.336;2023-06-04T00:05:41;384.20;128.00
55331;DHT22;58851;42.984;20.336;2023-06-04T00:08:07;384.30;128.00
55331;DHT22;58851;42.984;20.336;2023-06-04T00:10:33;384.30;128.00
55331;DHT22;58851;42.984;20.336;2023-06-04T00:12:59;384.30;128.00
55331;DHT22;58851;42.984;20.336;2023-06-04T00:15:25;384.30;128.00
55331;DHT22;58851;42.984;20.336;2023-06-04T00:17:51;384.30;128.00
55331;DHT22;58851;42.984;20.336;2023-06-04T00:20:17;384.30;128.00
55331;DHT22;58851;42.984;20.336;2023-06-04T00:22:43;384.40;128.00
55331;DHT22;58851;42.984;20.336;2023-06-04T00:25:10;384.50;128.00
55331;DHT22;58851;42.984;20.336;2023-06-04T00:27:36;384.30;128.00
55331;DHT22;58851;42.984;20.336;2023-06-04T00:30:03;384.30;128.00
55331;DHT22;58851;42.984;20.336;2023-06-04T00:32:29;384.30;128.00
55331;DHT22;58851;42.984;20.336;2023-06-04T00:34:56;384.30;128.00
55331;DHT22;58851;42.984;20.336;2023-06-04T00:37:27;384.30;128.00
55331;DHT22;58851;42.984;20.336;2023-06-04T00:39:53;384.30;128.00
55331;DHT22;58851;42.984;20.336;2023-06-04T00:42:19;384.20;128.00
55331;DHT22;58851;42.984;20.336;2023-06-04T00:44:45;384.10;128.00
55331;DHT22;58851;42.984;20.336;2023-06-04T00:47:16;384.00;128.00
55331;DHT22;58851;42.984;20.336;2023-06-04T00:49:42;384.00;128.00
55331;DHT22;58851;42.984;20.336;2023-06-04T00:52:09;384.00;128.00
55331;DHT22;58851;42.984;20.336;2023-06-04T00:54:36;384.00;128.00
55331;DHT22;58851;42.984;20.336;2023-06-04T00:57:04;384.00;128.00
55331;DHT22;58851;42.984;20.336;2023-06-04T00:59:32;384.00;128.00
55331;DHT22;58851;42.984;20.336;2023-06-04T01:02:00;384.00;128.00
55331;DHT22;58851;42.984;20.336;2023-06-04T01:04:41;384.10;128.00
55331;DHT22;58851;42.984;20.336;2023-06-04T01:07:09;384.00;128.00
55331;DHT22;58851;42.984;20.336;2023-06-04T01:09:36;359.30;128.00
55331;DHT22;58851;42.984;20.336;2023-06-04T01:12:06;384.00;128.00
55331;DHT22;58851;42.984;20.336;2023-06-04T01:14:32;384.00;128.00
55331;DHT22;58851;42.984;20.336;2023-06-04T01:17:11;384.00;128.00
55331;DHT22;58851;42.984;20.336;2023-06-04T01:19:47;384.10;128.00
55331;DHT22;58851;42.984;20.336;2023-06-04T01:25:20;384.00;128.00
55331;DHT22;58851;42.984;20.336;2023-06-04T01:27:51;384.00;128.00
55331;DHT22;58851;42.984;20.336;2023-06-04T01:30:21;359.30;128.00
55331;DHT22;58851;42.984;20.336;2023-06-04T01:32:48;359.20;128.00
55331;DHT22;58851;42.984;20.336;2023-06-04T01:35:15;359.10;128.00
55331;DHT22;58851;42.984;20.336;2023-06-04T01:37:40;359.20;128.00
55331;DHT22;58851;42.984;20.336;2023-06-04T01:40:06;359.10;128.00
55331;DHT22;58851;42.984;20.336;2023-06-04T01:42:34;359.20;128.00
55331;DHT22;58851;42.984;20.336;2023-06-04T01:45:00;359.20;128.00
55331;DHT22;58851;42.984;20.336;2023-06-04T01:47:26;359.10;128.00
55331;DHT22;58851;42.984;20.336;2023-06-04T01:49:52;358.90;128.00
55331;DHT22;58851;42.984;20.336;2023-06-04T01:52:17;358.80;128.00
55331;DHT22;58851;42.984;20.336;2023-06-04T01:54:46;358.90;128.00
55331;DHT22;58851;42.984;20.336;2023-06-04T01:57:15;359.00;128.00
55331;DHT22;58851;42.984;20.336;2023-06-04T01:59:41;359.10;128.00
55331;DHT22;58851;42.984;20.336;2023-06-04T02:02:07;358.90;128.00
55331;DHT22;58851;42.984;20.336;2023-06-04T02:04:33;358.80;128.00
55331;DHT22;58851;42.984;20.336;2023-06-04T02:07:02;358.80;128.00
55331;DHT22;58851;42.984;20.336;2023-06-04T02:09:28;358.80;128.00
55331;DHT22;58851;42.984;20.336;2023-06-04T02:11:53;358.70;128.00
55331;DHT22;58851;42.984;20.336;2023-06-04T02:14:19;358.70;128.00
55331;DHT22;58851;42.984;20.336;2023-06-04T02:16:45;358.70;128.00
55331;DHT22;58851;42.984;20.336;2023-06-04T02:19:15;358.60;128.00
55331;DHT22;58851;42.984;20.336;2023-06-04T02:21:41;358.80;128.00
55331;DHT22;58851;42.984;20.336;2023-06-04T02:24:06;358.80;128.00
55331;DHT22;58851;42.984;20.336;2023-06-04T02:26:32;358.80;128.00
55331;DHT22;58851;42.984;20.336;2023-06-04T02:28:58;358.70;128.00
55331;DHT22;58851;42.984;20.336;2023-06-04T02:31:24;358.80;128.00
55331;DHT22;58851;42.984;20.336;2023-06-04T02:33:49;358.80;128.00
55331;DHT22;58851;42.984;20.336;2023-06-04T02:36:15;358.80;128.00
55331;DHT22;58851;42.984;20.336;2023-06-04T02:38:43;358.80;128.00
55331;DHT22;58851;42.984;20.336;2023-06-04T02:41:08;358.90;128.00
55331;DHT22;58851;42.984;20.336;2023-06-04T02:43:34;358.90;128.00
55331;DHT22;58851;42.984;20.336;2023-06-04T02:46:00;359.00;128.00
55331;DHT22;58851;42.984;20.336;2023-06-04T02:48:26;358.90;128.00
55331;DHT22;58851;42.984;20.336;2023-06-04T02:50:51;358.70;128.00
55331;DHT22;58851;42.984;20.336;2023-06-04T02:53:17;358.70;128.00
55331;DHT22;58851;42.984;20.336;2023-06-04T02:55:43;358.80;128.00
55331;DHT22;58851;42.984;20.336;2023-06-04T02:58:09;358.80;128.00
55331;DHT22;58851;42.984;20.336;2023-06-04T03:00:35;358.60;128.00
55331;DHT22;58851;42.984;20.336;2023-06-04T03:03:01;358.60;128.00
55331;DHT22;58851;42.984;20.336;2023-06-04T03:05:27;358.60;128.00
55331;DHT22;58851;42.984;20.336;2023-06-04T03:07:53;358.60;128.00
55331;DHT22;58851;42.984;20.336;2023-06-04T03:10:18;358.60;128.00
55331;DHT22;58851;42.984;20.336;2023-06-04T03:12:45;358.50;128.00
55331;DHT22;58851;42.984;20.336;2023-06-04T03:15:11;358.60;128.00
55331;DHT22;58851;42.984;20.336;2023-06-04T03:17:37;358.70;128.00
55331;DHT22;58851;42.984;20.336;2023-06-04T03:20:03;358.80;128.00
55331;DHT22;58851;42.984;20.336;2023-06-04T03:22:30;358.80;128.00
55331;DHT22;58851;42.984;20.336;2023-06-04T03:24:56;358.80;128.00
55331;DHT22;58851;42.984;20.336;2023-06-04T03:27:22;358.90;128.00
55331;DHT22;58851;42.984;20.336;2023-06-04T03:29:47;359.00;128.00
55331;DHT22;58851;42.984;20.336;2023-06-04T03:32:13;359.10;128.00
55331;DHT22;58851;42.984;20.336;2023-06-04T03:34:41;359.20;128.00
55331;DHT22;58851;42.984;20.336;2023-06-04T03:37:07;359.30;128.00
55331;DHT22;58851;42.984;20.336;2023-06-04T03:39:32;359.30;128.00
55331;DHT22;58851;42.984;20.336;2023-06-04T03:41:58;384.00;128.00
55331;DHT22;58851;42.984;20.336;2023-06-04T03:44:24;384.00;128.00
55331;DHT22;58851;42.984;20.336;2023-06-04T03:46:50;384.00;128.00
55331;DHT22;58851;42.984;20.336;2023-06-04T03:49:16;359.20;128.00
55331;DHT22;58851;42.984;20.336;2023-06-04T03:51:43;359.20;128.00
55331;DHT22;58851;42.984;20.336;2023-06-04T03:54:09;359.00;128.00
55331;DHT22;58851;42.984;20.336;2023-06-04T03:56:35;359.00;128.00
55331;DHT22;58851;42.984;20.336;2023-06-04T03:59:01;359.10;128.00
55331;DHT22;58851;42.984;20.336;2023-06-04T04:01:27;359.10;128.00
55331;DHT22;58851;42.984;20.336;2023-06-04T04:03:53;359.10;128.00
55331;DHT22;58851;42.984;20.336;2023-06-04T04:06:20;359.20;128.00
55331;DHT22;58851;42.984;20.336;2023-06-04T04:08:46;384.00;128.00
55331;DHT22;58851;42.984;20.336;2023-06-04T04:11:16;384.00;128.00
55331;DHT22;58851;42.984;20.336;2023-06-04T04:13:44;384.00;128.00
55331;DHT22;58851;42.984;20.336;2023-06-04T04:16:11;384.10;128.00
55331;DHT22;58851;42.984;20.336;2023-06-04T04:18:37;384.20;128.00
55331;DHT22;58851;42.984;20.336;2023-06-04T04:21:03;384.20;128.00
55331;DHT22;58851;42.984;20.336;2023-06-04T04:23:30;384.30;128.00
55331;DHT22;58851;42.984;20.336;2023-06-04T04:25:58;384.40;128.00
55331;DHT22;58851;42.984;20.336;2023-06-04T04:28:27;384.50;128.00
55331;DHT22;58851;42.984;20.336;2023-06-04T04:30:54;384.50;128.00
55331;DHT22;58851;42.984;20.336;2023-06-04T04:33:22;384.50;128.00
55331;DHT22;58851;42.984;20.336;2023-06-04T04:35:52;384.60;128.00
55331;DHT22;58851;42.984;20.336;2023-06-04T04:38:21;384.70;128.00
55331;DHT22;58851;42.984;20.336;2023-06-04T04:40:50;384.70;128.00
55331;DHT22;58851;42.984;20.336;2023-06-04T04:43:31;384.80;128.00
55331;DHT22;58851;42.984;20.336;2023-06-04T04:45:57;384.90;128.00
55331;DHT22;58851;42.984;20.336;2023-06-04T04:48:24;409.60;128.00
55331;DHT22;58851;42.984;20.336;2023-06-04T04:50:51;409.60;128.00
55331;DHT22;58851;42.984;20.336;2023-06-04T04:53:17;409.60;128.00
55331;DHT22;58851;42.984;20.336;2023-06-04T04:55:42;409.60;128.00
55331;DHT22;58851;42.984;20.336;2023-06-04T04:58:08;409.60;128.00
55331;DHT22;58851;42.984;20.336;2023-06-04T05:00:34;409.60;128.00
55331;DHT22;58851;42.984;20.336;2023-06-04T05:03:00;409.80;128.00
55331;DHT22;58851;42.984;20.336;2023-06-04T05:05:26;409.80;128.00
55331;DHT22;58851;42.984;20.336;2023-06-04T05:07:52;409.90;128.00
55331;DHT22;58851;42.984;20.336;2023-06-04T05:10:18;409.90;128.00
55331;DHT22;58851;42.984;20.336;2023-06-04T05:13:02;410.00;128.00
55331;DHT22;58851;42.984;20.336;2023-06-04T05:15:27;410.10;128.00
55331;DHT22;58851;42.984;20.336;2023-06-04T05:17:55;410.10;128.00
55331;DHT22;58851;42.984;20.336;2023-06-04T05:20:22;410.20;128.00
55331;DHT22;58851;42.984;20.336;2023-06-04T05:22:48;410.10;128.00
55331;DHT22;58851;42.984;20.336;2023-06-04T05:25:14;410.20;128.00
55331;DHT22;58851;42.984;20.336;2023-06-04T05:27:40;410.30;128.00
55331;DHT22;58851;42.984;20.336;2023-06-04T05:30:07;410.30;128.00
55331;DHT22;58851;42.984;20.336;2023-06-04T05:32:33;410.40;128.00
55331;DHT22;58851;42.984;20.336;2023-06-04T05:34:59;410.40;128.00
55331;DHT22;58851;42.984;20.336;2023-06-04T05:37:26;435.20;128.00
55331;DHT22;58851;42.984;20.336;2023-06-04T05:39:57;435.40;128.00
55331;DHT22;58851;42.984;20.336;2023-06-04T05:42:23;435.40;128.00
55331;DHT22;58851;42.984;20.336;2023-06-04T05:44:50;435.60;128.00
55331;DHT22;58851;42.984;20.336;2023-06-04T05:47:16;435.40;128.00
55331;DHT22;58851;42.984;20.336;2023-06-04T05:49:45;435.50;128.00
55331;DHT22;58851;42.984;20.336;2023-06-04T05:52:11;435.80;128.00
55331;DHT22;58851;42.984;20.336;2023-06-04T05:54:36;435.80;128.00
55331;DHT22;58851;42.984;20.336;2023-06-04T05:57:04;435.80;128.00
55331;DHT22;58851;42.984;20.336;2023-06-04T05:59:30;436.00;128.00
55331;DHT22;58851;42.984;20.336;2023-06-04T06:01:56;460.80;128.00
55331;DHT22;58851;42.984;20.336;2023-06-04T06:04:22;460.90;128.00
55331;DHT22;58851;42.984;20.336;2023-06-04T06:06:48;460.90;128.00
55331;DHT22;58851;42.984;20.336;2023-06-04T06:09:14;461.00;128.00
55331;DHT22;58851;42.984;20.336;2023-06-04T06:11:41;461.10;128.00
55331;DHT22;58851;42.984;20.336;2023-06-04T06:14:07;461.20;128.00
55331;DHT22;58851;42.984;20.336;2023-06-04T06:16:32;461.30;128.00
55331;DHT22;58851;42.984;20.336;2023-06-04T06:18:59;461.40;128.00
55331;DHT22;58851;42.984;20.336;2023-06-04T06:21:25;461.40;128.00
55331;DHT22;58851;42.984;20.336;2023-06-04T06:23:51;461.50;128.00
55331;DHT22;58851;42.984;20.336;2023-06-04T06:26:17;461.50;128.00
55331;DHT22;58851;42.984;20.336;2023-06-04T06:28:43;461.50;128.00
55331;DHT22;58851;42.984;20.336;2023-06-04T06:31:09;461.70;128.00
55331;DHT22;58851;42.984;20.336;2023-06-04T06:33:35;486.40;128.00
55331;DHT22;58851;42.984;20.336;2023-06-04T06:36:07;486.50;128.00
55331;DHT22;58851;42.984;20.336;2023-06-04T06:38:33;486.70;128.00
55331;DHT22;58851;42.984;20.336;2023-06-04T06:40:59;486.70;128.00
55331;DHT22;58851;42.984;20.336;2023-06-04T06:43:25;486.90;128.00
55331;DHT22;58851;42.984;20.336;2023-06-04T06:45:51;486.90;128.00
55331;DHT22;58851;42.984;20.336;2023-06-04T06:48:17;486.70;128.00
55331;DHT22;58851;42.984;20.336;2023-06-04T06:50:42;486.80;128.00
55331;DHT22;58851;42.984;20.336;2023-06-04T06:53:08;486.90;128.00
55331;DHT22;58851;42.984;20.336;2023-06-04T06:55:34;487.00;128.00
55331;DHT22;58851;42.984;20.336;2023-06-04T06:57:59;487.30;128.00
55331;DHT22;58851;42.984;20.336;2023-06-04T07:00:26;512.00;128.00
55331;DHT22;58851;42.984;20.336;2023-06-04T07:02:53;512.10;128.00
55331;DHT22;58851;42.984;20.336;2023-06-04T07:05:19;512.10;128.00
55331;DHT22;58851;42.984;20.336;2023-06-04T07:07:45;512.10;128.00
55331;DHT22;58851;42.984;20.336;2023-06-04T07:10:12;512.20;128.00
55331;DHT22;58851;42.984;20.336;2023-06-04T07:12:38;512.20;128.00
55331;DHT22;58851;42.984;20.336;2023-06-04T07:15:06;512.40;128.00
55331;DHT22;58851;42.984;20.336;2023-06-04T07:17:32;512.40;128.00
55331;DHT22;58851;42.984;20.336;2023-06-04T07:19:58;512.20;128.00
55331;DHT22;58851;42.984;20.336;2023-06-04T07:22:23;512.30;128.00
55331;DHT22;58851;42.984;20.336;2023-06-04T07:24:49;512.40;128.00
55331;DHT22;58851;42.984;20.336;2023-06-04T07:27:15;512.50;128.00
55331;DHT22;58851;42.984;20.336;2023-06-04T07:29:44;512.60;128.00
55331;DHT22;58851;42.984;20.336;2023-06-04T07:32:10;512.70;128.00
55331;DHT22;58851;42.984;20.336;2023-06-04T07:34:38;512.50;128.00
55331;DHT22;58851;42.984;20.336;2023-06-04T07:37:04;512.70;128.00
55331;DHT22;58851;42.984;20.336;2023-06-04T07:39:31;512.90;128.00
55331;DHT22;58851;42.984;20.336;2023-06-04T07:41:56;537.60;128.00
55331;DHT22;58851;42.984;20.336;2023-06-04T07:44:22;537.80;128.00
55331;DHT22;58851;42.984;20.336;2023-06-04T07:46:48;538.00;128.00
55331;DHT22;58851;42.984;20.336;2023-06-04T07:49:14;538.20;128.00
55331;DHT22;58851;42.984;20.336;2023-06-04T07:51:40;538.30;128.00
55331;DHT22;58851;42.984;20.336;2023-06-04T07:54:07;538.40;128.00
55331;DHT22;58851;42.984;20.336;2023-06-04T07:56:32;538.50;128.00
55331;DHT22;58851;42.984;20.336;2023-06-04T07:58:58;563.20;128.00
55331;DHT22;58851;42.984;20.336;2023-06-04T08:01:24;563.30;256.00
55331;DHT22;58851;42.984;20.336;2023-06-04T08:03:50;563.20;512.00
55331;DHT22;58851;42.984;20.336;2023-06-04T08:06:16;563.30;128.00
55331;DHT22;58851;42.984;20.336;2023-06-04T08:08:46;563.50;179.20
55331;DHT22;58851;42.984;20.336;2023-06-04T08:11:14;563.50;409.60
55331;DHT22;58851;42.984;20.336;2023-06-04T08:13:41;563.40;307.20
55331;DHT22;58851;42.984;20.336;2023-06-04T08:16:09;563.60;179.20
55331;DHT22;58851;42.984;20.336;2023-06-04T08:18:39;563.70;128.00
55331;DHT22;58851;42.984;20.336;2023-06-04T08:21:08;563.70;281.60
55331;DHT22;58851;42.984;20.336;2023-06-04T08:23:34;563.70;128.00
55331;DHT22;58851;42.984;20.336;2023-06-04T08:26:00;563.40;128.00
55331;DHT22;58851;42.984;20.336;2023-06-04T08:28:26;563.40;128.00
55331;DHT22;58851;42.984;20.336;2023-06-04T08:30:52;563.40;128.00
55331;DHT22;58851;42.984;20.336;2023-06-04T08:33:18;563.40;128.00
55331;DHT22;58851;42.984;20.336;2023-06-04T08:35:44;563.60;281.60
55331;DHT22;58851;42.984;20.336;2023-06-04T08:38:10;563.80;153.60
55331;DHT22;58851;42.984;20.336;2023-06-04T08:40:36;563.60;128.00
55331;DHT22;58851;42.984;20.336;2023-06-04T08:43:02;563.60;128.00
55331;DHT22;58851;42.984;20.336;2023-06-04T08:45:28;563.60;128.00
55331;DHT22;58851;42.984;20.336;2023-06-04T08:47:56;563.70;128.00
55331;DHT22;58851;42.984;20.336;2023-06-04T08:50:25;563.60;128.00
55331;DHT22;58851;42.984;20.336;2023-06-04T08:52:52;563.70;128.00
55331;DHT22;58851;42.984;20.336;2023-06-04T08:55:19;563.70;128.00
55331;DHT22;58851;42.984;20.336;2023-06-04T08:57:45;563.60;128.00
55331;DHT22;58851;42.984;20.336;2023-06-04T09:00:13;563.90;128.00
55331;DHT22;58851;42.984;20.336;2023-06-04T09:02:39;564.00;128.00
55331;DHT22;58851;42.984;20.336;2023-06-04T09:05:05;588.80;128.00
55331;DHT22;58851;42.984;20.336;2023-06-04T09:07:39;589.00;128.00
55331;DHT22;58851;42.984;20.336;2023-06-04T09:10:09;589.10;128.00
55331;DHT22;58851;42.984;20.336;2023-06-04T09:12:42;589.20;128.00
55331;DHT22;58851;42.984;20.336;2023-06-04T09:15:10;589.40;512.00
55331;DHT22;58851;42.984;20.336;2023-06-04T09:17:36;589.50;128.00
55331;DHT22;58851;42.984;20.336;2023-06-04T09:20:02;589.40;128.00
55331;DHT22;58851;42.984;20.336;2023-06-04T09:22:33;589.70;486.40
55331;DHT22;58851;42.984;20.336;2023-06-04T09:24:59;614.60;128.00
55331;DHT22;58851;42.984;20.336;2023-06-04T09:27:25;614.60;128.00
55331;DHT22;58851;42.984;20.336;2023-06-04T09:29:55;614.50;128.00
55331;DHT22;58851;42.984;20.336;2023-06-04T09:32:27;614.50;128.00
55331;DHT22;58851;42.984;20.336;2023-06-04T09:35:13;614.60;128.00
55331;DHT22;58851;42.984;20.336;2023-06-04T09:37:54;614.80;128.00
55331;DHT22;58851;42.984;20.336;2023-06-04T09:40:21;614.90;128.00
55331;DHT22;58851;42.984;20.336;2023-06-04T09:42:48;615.00;384.00
55331;DHT22;58851;42.984;20.336;2023-06-04T09:45:28;614.90;128.00
55331;DHT22;58851;42.984;20.336;2023-06-04T09:47:58;614.80;486.40
55331;DHT22;58851;42.984;20.336;2023-06-04T09:50:33;614.90;537.60
55331;DHT22;58851;42.984;20.336;2023-06-04T09:53:21;614.80;128.00
55331;DHT22;58851;42.984;20.336;2023-06-04T09:55:58;614.70;128.00
55331;DHT22;58851;42.984;20.336;2023-06-04T09:58:27;614.60;128.00
55331;DHT22;58851;42.984;20.336;2023-06-04T10:01:02;614.50;128.00
55331;DHT22;58851;42.984;20.336;2023-06-04T10:03:35;614.40;128.00
55331;DHT22;58851;42.984;20.336;2023-06-04T10:06:05;614.50;435.20
55331;DHT22;58851;42.984;20.336;2023-06-04T10:08:32;589.70;128.00
55331;DHT22;58851;42.984;20.336;2023-06-04T10:11:00;614.40;128.00
55331;DHT22;58851;42.984;20.336;2023-06-04T10:13:30;614.40;128.00
55331;DHT22;58851;42.984;20.336;2023-06-04T10:15:58;589.60;128.00
55331;DHT22;58851;42.984;20.336;2023-06-04T10:18:24;589.30;128.00
55331;DHT22;58851;42.984;20.336;2023-06-04T10:20:53;589.30;128.00
55331;DHT22;58851;42.984;20.336;2023-06-04T10:23:21;589.40;409.60
55331;DHT22;58851;42.984;20.336;2023-06-04T10:25:49;589.60;128.00
55331;DHT22;58851;42.984;20.336;2023-06-04T10:28:18;589.60;128.00
55331;DHT22;58851;42.984;20.336;2023-06-04T10:30:46;614.40;128.00
55331;DHT22;58851;42.984;20.336;2023-06-04T10:33:12;614.40;486.40
55331;DHT22;58851;42.984;20.336;2023-06-04T10:35:38;614.50;128.00
55331;DHT22;58851;42.984;20.336;2023-06-04T10:38:09;614.50;128.00
55331;DHT22;58851;42.984;20.336;2023-06-04T10:40:37;614.40;128.00
55331;DHT22;58851;42.984;20.336;2023-06-04T10:43:11;614.50;128.00
55331;DHT22;58851;42.984;20.336;2023-06-04T10:45:37;614.60;128.00
55331;DHT22;58851;42.984;20.336;2023-06-04T10:48:05;614.70;128.00
55331;DHT22;58851;42.984;20.336;2023-06-04T10:50:32;614.80;128.00
55331;DHT22;58851;42.984;20.336;2023-06-04T10:53:01;614.80;128.00
55331;DHT22;58851;42.984;20.336;2023-06-04T10:55:31;615.00;128.00
55331;DHT22;58851;42.984;20.336;2023-06-04T10:57:58;615.10;128.00
55331;DHT22;58851;42.984;20.336;2023-06-04T11:00:38;615.20;128.00
55331;DHT22;58851;42.984;20.336;2023-06-04T11:03:05;640.00;128.00
55331;DHT22;58851;42.984;20.336;2023-06-04T11:05:39;615.20;128.00
55331;DHT22;58851;42.984;20.336;2023-06-04T11:08:05;640.00;128.00
55331;DHT22;58851;42.984;20.336;2023-06-04T11:10:34;640.20;128.00
55331;DHT22;58851;42.984;20.336;2023-06-04T11:13:01;640.30;128.00
55331;DHT22;58851;42.984;20.336;2023-06-04T11:15:27;640.40;128.00
55331;DHT22;58851;42.984;20.336;2023-06-04T11:18:02;640.60;128.00
55331;DHT22;58851;42.984;20.336;2023-06-04T11:20:28;640.70;128.00
55331;DHT22;58851;42.984;20.336;2023-06-04T11:22:58;665.80;153.60
55331;DHT22;58851;42.984;20.336;2023-06-04T11:25:29;665.80;153.60
55331;DHT22;58851;42.984;20.336;2023-06-04T11:27:56;665.80;153.60
55331;DHT22;58851;42.984;20.336;2023-06-04T11:30:23;666.20;153.60
55331;DHT22;58851;42.984;20.336;2023-06-04T11:32:49;666.10;153.60
55331;DHT22;58851;42.984;20.336;2023-06-04T11:35:16;665.90;153.60
55331;DHT22;58851;42.984;20.336;2023-06-04T11:37:52;665.80;153.60
55331;DHT22;58851;42.984;20.336;2023-06-04T11:40:19;665.90;153.60
55331;DHT22;58851;42.984;20.336;2023-06-04T11:42:46;665.90;153.60
55331;DHT22;58851;42.984;20.336;2023-06-04T11:45:17;666.30;153.60
55331;DHT22;58851;42.984;20.336;2023-06-04T11:47:54;691.20;153.60
55331;DHT22;58851;42.984;20.336;2023-06-04T11:50:21;691.20;153.60
55331;DHT22;58851;42.984;20.336;2023-06-04T11:52:48;691.30;153.60
55331;DHT22;58851;42.984;20.336;2023-06-04T11:55:15;691.20;153.60
55331;DHT22;58851;42.984;20.336;2023-06-04T11:57:46;666.50;153.60
55331;DHT22;58851;42.984;20.336;2023-06-04T12:00:13;666.30;153.60
55331;DHT22;58851;42.984;20.336;2023-06-04T12:05:15;666.30;153.60
55331;DHT22;58851;42.984;20.336;2023-06-04T12:07:41;691.30;153.60
55331;DHT22;58851;42.984;20.336;2023-06-04T12:10:08;691.40;153.60
55331;DHT22;58851;42.984;20.336;2023-06-04T12:12:34;691.70;768.00
55331;DHT22;58851;42.984;20.336;2023-06-04T12:15:01;716.80;179.20
55331;DHT22;58851;42.984;20.336;2023-06-04T12:17:27;692.10;256.00
55331;DHT22;58851;42.984;20.336;2023-06-04T12:19:52;717.00;435.20
55331;DHT22;58851;42.984;20.336;2023-06-04T12:22:19;717.00;179.20
55331;DHT22;58851;42.984;20.336;2023-06-04T12:24:49;717.10;179.20
55331;DHT22;58851;42.984;20.336;2023-06-04T12:27:19;717.10;179.20
55331;DHT22;58851;42.984;20.336;2023-06-04T12:30:04;717.30;179.20
55331;DHT22;58851;42.984;20.336;2023-06-04T12:32:34;717.30;179.20
55331;DHT22;58851;42.984;20.336;2023-06-04T12:35:00;717.20;179.20
55331;DHT22;58851;42.984;20.336;2023-06-04T12:37:26;717.30;179.20
55331;DHT22;58851;42.984;20.336;2023-06-04T12:39:53;742.40;204.80
55331;DHT22;58851;42.984;20.336;2023-06-04T12:42:19;742.80;204.80
55331;DHT22;58851;42.984;20.336;2023-06-04T12:44:46;742.90;204.80
55331;DHT22;58851;42.984;20.336;2023-06-04T12:47:12;742.60;204.80
55331;DHT22;58851;42.984;20.336;2023-06-04T12:49:38;743.10;204.80
55331;DHT22;58851;42.984;20.336;2023-06-04T12:52:04;743.20;204.80
55331;DHT22;58851;42.984;20.336;2023-06-04T12:54:30;768.30;204.80
55331;DHT22;58851;42.984;20.336;2023-06-04T12:59:27;768.90;204.80
55331;DHT22;58851;42.984;20.336;2023-06-04T13:01:54;793.80;230.40
55331;DHT22;58851;42.984;20.336;2023-06-04T13:06:49;794.50;230.40
55331;DHT22;58851;42.984;20.336;2023-06-04T13:09:17;819.80;230.40
55331;DHT22;58851;42.984;20.336;2023-06-04T13:11:45;820.00;230.40
55331;DHT22;58851;42.984;20.336;2023-06-04T13:14:11;844.80;256.00
55331;DHT22;58851;42.984;20.336;2023-06-04T13:16:40;845.60;256.00
55331;DHT22;58851;42.984;20.336;2023-06-04T13:19:07;845.30;256.00
55331;DHT22;58851;42.984;20.336;2023-06-04T13:21:33;844.90;256.00
55331;DHT22;58851;42.984;20.336;2023-06-04T13:23:59;819.90;230.40
55331;DHT22;58851;42.984;20.336;2023-06-04T13:26:25;819.30;230.40
55331;DHT22;58851;42.984;20.336;2023-06-04T13:28:51;794.20;230.40
55331;DHT22;58851;42.984;20.336;2023-06-04T13:31:17;793.70;230.40
55331;DHT22;58851;42.984;20.336;2023-06-04T13:33:43;794.00;230.40
55331;DHT22;58851;42.984;20.336;2023-06-04T13:36:09;819.30;230.40
55331;DHT22;58851;42.984;20.336;2023-06-04T13:41:01;845.50;256.00
55331;DHT22;58851;42.984;20.336;2023-06-04T13:43:27;845.30;256.00
55331;DHT22;58851;42.984;20.336;2023-06-04T13:48:19;870.80;256.00
55331;DHT22;58851;42.984;20.336;2023-06-04T13:50:45;896.20;256.00
55331;DHT22;58851;42.984;20.336;2023-06-04T13:53:11;896.70;256.00
55331;DHT22;58851;42.984;20.336;2023-06-04T13:55:38;922.00;281.60
55331;DHT22;58851;42.984;20.336;2023-06-04T13:58:04;922.40;281.60
55331;DHT22;58851;42.984;20.336;2023-06-04T14:00:30;947.40;281.60
55331;DHT22;58851;42.984;20.336;2023-06-04T14:02:57;947.90;281.60
55331;DHT22;58851;42.984;20.336;2023-06-04T14:05:24;922.00;281.60
55331;DHT22;58851;42.984;20.336;2023-06-04T14:07:51;871.30;256.00
55331;DHT22;58851;42.984;20.336;2023-06-04T14:10:16;896.40;256.00
55331;DHT22;58851;42.984;20.336;2023-06-04T14:12:42;922.10;281.60
55331;DHT22;58851;42.984;20.336;2023-06-04T14:15:10;947.70;281.60
55331;DHT22;58851;42.984;20.336;2023-06-04T14:17:39;948.00;281.60
55331;DHT22;58851;42.984;20.336;2023-06-04T14:20:06;922.10;281.60
55331;DHT22;58851;42.984;20.336;2023-06-04T14:22:36;896.40;256.00
55331;DHT22;58851;42.984;20.336;2023-06-04T14:25:03;896.40;256.00
55331;DHT22;58851;42.984;20.336;2023-06-04T14:27:29;896.30;256.00
55331;DHT22;58851;42.984;20.336;2023-06-04T14:29:55;896.10;256.00
55331;DHT22;58851;42.984;20.336;2023-06-04T14:32:21;896.80;256.00
55331;DHT22;58851;42.984;20.336;2023-06-04T14:34:47;947.20;281.60
55331;DHT22;58851;42.984;20.336;2023-06-04T14:37:12;947.70;281.60
55331;DHT22;58851;42.984;20.336;2023-06-04T14:39:38;973.50;307.20
55331;DHT22;58851;42.984;20.336;2023-06-04T14:42:04;998.50;332.80
55331;DHT22;58851;42.984;20.336;2023-06-04T14:44:30;999.30;332.80
55331;DHT22;58851;42.984;20.336;2023-06-04T14:46:56;1024.20;332.80
55331;DHT22;58851;42.984;20.336;2023-06-04T14:49:22;1024.90;332.80
55331;DHT22;58851;42.984;20.336;2023-06-04T14:51:48;1049.70;358.40
55331;DHT22;58851;42.984;20.336;2023-06-04T14:54:14;998.40;332.80
55331;DHT22;58851;42.984;20.336;2023-06-04T14:56:40;972.80;307.20
55331;DHT22;58851;42.984;20.336;2023-06-04T14:59:06;922.50;281.60
55331;DHT22;58851;42.984;20.336;2023-06-04T15:01:35;896.80;256.00
55331;DHT22;58851;42.984;20.336;2023-06-04T15:04:03;896.00;256.00